Time;durP1;ratioP1;P1;durP2;ratioP2;P2;SDS_P1;SDS_P2;PMS_P1;PMS_P2;Temp;Humidity;BMP_temperature;BMP_pressure;BME280_temperature;BME280_humidity;BME280_pressure;Samples;Min_cycle;Max_cycle;Signal;HPM_P1;HPM_P2
2022/04/12 00:01:04;;;;;;;17.10;12.05;;;9.50;90.40;;;;;;5080823;28;20044;-90
2022/04/12 00:03:31;;;;;;;16.83;11.90;;;9.50;90.50;;;;;;5057738;28;20072;-90
2022/04/12 00:05:56;;;;;;;18.00;11.85;;;9.50;90.50;;;;;;5058984;28;20036;-90
2022/04/12 00:08:22;;;;;;;15.98;12.02;;;9.50;90.70;;;;;;5067191;28;20044;-90
2022/04/12 00:10:49;;;;;;;17.23;12.25;;;9.50;91.00;;;;;;5070658;28;20044;-90
2022/04/12 00:13:15;;;;;;;16.52;12.13;;;9.50;91.00;;;;;;5070569;28;20657;-90
2022/04/12 00:15:40;;;;;;;16.83;11.32;;;9.40;91.10;;;;;;5052878;28;20127;-90
2022/04/12 00:20:53;;;;;;;16.48;12.43;;;9.40;91.30;;;;;;5070263;28;20439;-90
2022/04/12 00:23:19;;;;;;;17.65;12.25;;;9.40;91.70;;;;;;5070189;28;20048;-90
2022/04/12 00:25:44;;;;;;;15.98;11.45;;;9.30;91.50;;;;;;5053614;28;20051;-90
2022/04/12 00:28:12;;;;;;;17.00;11.25;;;9.30;91.60;;;;;;5053908;28;20044;-90
2022/04/12 00:30:38;;;;;;;15.55;11.25;;;9.30;91.80;;;;;;5070357;28;20036;-90
2022/04/12 00:33:04;;;;;;;16.75;11.25;;;9.30;91.90;;;;;;5053458;28;20463;-90
2022/04/12 00:35:29;;;;;;;18.40;11.85;;;9.30;92.00;;;;;;5069933;28;20055;-91
2022/04/12 00:37:55;;;;;;;16.70;12.25;;;9.20;92.00;;;;;;5053851;28;20044;-90
2022/04/12 00:40:24;;;;;;;14.77;11.27;;;9.20;92.20;;;;;;5053299;28;20086;-90
2022/04/12 00:42:51;;;;;;;16.17;12.10;;;9.20;92.40;;;;;;5070064;28;20115;-90
2022/04/12 00:45:17;;;;;;;16.35;10.75;;;9.20;92.50;;;;;;5053509;28;20048;-90
2022/04/12 00:47:43;;;;;;;15.32;11.00;;;9.10;92.50;;;;;;5069937;28;20040;-90
2022/04/12 00:50:10;;;;;;;15.90;11.00;;;9.10;92.70;;;;;;5069832;28;20037;-89
2022/04/12 00:52:41;;;;;;;16.10;10.82;;;9.00;92.80;;;;;;5053155;28;20068;-90
2022/04/12 00:55:07;;;;;;;15.90;11.43;;;9.00;92.90;;;;;;5069894;28;20052;-90
2022/04/12 00:57:33;;;;;;;17.00;11.30;;;9.00;93.00;;;;;;5069994;28;20040;-90
2022/04/12 01:00:05;;;;;;;16.52;10.93;;;9.00;93.40;;;;;;5052901;28;20036;-90
2022/04/12 01:02:32;;;;;;;16.38;10.45;;;9.00;93.40;;;;;;5070182;28;20032;-90
2022/04/12 01:05:00;;;;;;;15.50;10.07;;;8.90;93.10;;;;;;5070006;28;20072;-90
2022/04/12 01:07:26;;;;;;;14.23;10.52;;;8.90;93.30;;;;;;5053196;28;20067;-90
2022/04/12 01:09:53;;;;;;;15.82;11.85;;;8.90;93.40;;;;;;5069409;28;20037;-90
2022/04/12 01:12:21;;;;;;;15.35;10.88;;;8.90;93.80;;;;;;5053208;28;20036;-90
2022/04/12 01:14:47;;;;;;;15.93;11.50;;;8.80;93.90;;;;;;5052350;28;20036;-90
2022/04/12 01:17:12;;;;;;;15.70;10.93;;;8.80;94.00;;;;;;5069702;28;20093;-90
2022/04/12 01:19:38;;;;;;;16.73;11.50;;;8.80;94.00;;;;;;5073464;28;20086;-90
2022/04/12 01:22:08;;;;;;;15.05;11.23;;;8.70;94.00;;;;;;5073068;28;20410;-90
2022/04/12 01:24:34;;;;;;;15.60;10.43;;;8.70;94.20;;;;;;5073609;28;20060;-90
2022/04/12 01:27:00;;;;;;;15.43;10.02;;;8.70;94.20;;;;;;5057128;28;20127;-90
2022/04/12 01:29:30;;;;;;;15.05;10.82;;;8.70;94.20;;;;;;5073405;28;20052;-90
2022/04/12 01:31:56;;;;;;;14.82;9.95;;;8.70;94.30;;;;;;5073248;28;20044;-90
2022/04/12 01:34:22;;;;;;;15.85;10.70;;;8.60;94.40;;;;;;5073507;28;20032;-90
2022/04/12 01:36:47;;;;;;;16.17;10.38;;;8.60;94.70;;;;;;5073149;28;20409;-90
2022/04/12 01:39:13;;;;;;;16.75;11.15;;;8.60;94.80;;;;;;5073099;28;20037;-90
2022/04/12 01:41:38;;;;;;;14.60;10.52;;;8.60;94.80;;;;;;5056443;28;20119;-90
2022/04/12 01:44:04;;;;;;;15.50;10.05;;;8.60;94.90;;;;;;5073003;28;20037;-90
2022/04/12 01:46:30;;;;;;;16.85;10.65;;;8.50;94.90;;;;;;5056373;28;20055;-89
2022/04/12 01:48:55;;;;;;;16.92;11.00;;;8.50;95.00;;;;;;5073466;28;20497;-90
2022/04/12 01:51:21;;;;;;;16.58;10.40;;;8.50;95.00;;;;;;5055732;28;20520;-89
2022/04/12 01:53:46;;;;;;;14.48;10.05;;;8.50;95.10;;;;;;5073098;28;20466;-90
2022/04/12 01:56:12;;;;;;;16.00;10.27;;;8.40;95.20;;;;;;5056488;28;20131;-89
2022/04/12 01:58:38;;;;;;;16.73;10.82;;;8.40;95.10;;;;;;5056658;28;20055;-90
2022/04/12 02:01:04;;;;;;;16.00;11.43;;;8.40;95.30;;;;;;5072761;28;20516;-89
2022/04/12 02:03:30;;;;;;;14.20;10.38;;;8.40;95.40;;;;;;5072743;28;20036;-90
2022/04/12 02:05:56;;;;;;;14.20;9.90;;;8.40;95.50;;;;;;5072394;28;20036;-89
2022/04/12 02:08:22;;;;;;;15.90;10.90;;;8.30;95.60;;;;;;5055933;28;20032;-89
2022/04/12 02:10:47;;;;;;;14.40;10.38;;;8.30;95.80;;;;;;5072213;28;20036;-90
2022/04/12 02:13:13;;;;;;;16.25;10.45;;;8.20;95.90;;;;;;5072718;28;20371;-90
2022/04/12 02:15:38;;;;;;;15.77;10.57;;;8.20;95.90;;;;;;5055061;28;20486;-90
2022/04/12 02:18:04;;;;;;;14.23;10.50;;;8.20;96.20;;;;;;5055689;28;20033;-90
2022/04/12 02:20:29;;;;;;;14.57;9.73;;;8.20;96.30;;;;;;5072231;28;20032;-90
2022/04/12 02:22:55;;;;;;;14.30;10.48;;;8.10;96.30;;;;;;5055692;28;20556;-90
2022/04/12 02:25:21;;;;;;;14.93;10.25;;;8.10;96.30;;;;;;5055582;28;20040;-90
2022/04/12 02:27:47;;;;;;;16.40;9.98;;;8.10;96.30;;;;;;5071943;28;20032;-90
2022/04/12 02:30:13;;;;;;;14.60;9.82;;;8.10;96.40;;;;;;5071511;28;20171;-90
2022/04/12 02:32:42;;;;;;;15.20;10.27;;;8.00;96.60;;;;;;5072641;28;20079;-90
2022/04/12 02:35:08;;;;;;;15.98;10.80;;;8.00;96.90;;;;;;5072070;28;20029;-90
2022/04/12 02:37:34;;;;;;;15.43;9.68;;;8.00;96.90;;;;;;5072574;28;20047;-90
2022/04/12 02:39:59;;;;;;;16.67;10.30;;;8.00;96.90;;;;;;5071860;28;20036;-90
2022/04/12 02:42:25;;;;;;;17.33;9.93;;;8.00;97.10;;;;;;5072231;28;20075;-90
2022/04/12 02:44:50;;;;;;;14.93;10.38;;;7.90;97.00;;;;;;5055443;28;20068;-89
2022/04/12 02:47:16;;;;;;;16.45;10.63;;;7.90;97.10;;;;;;5071696;28;20517;-89
2022/04/12 02:49:42;;;;;;;15.70;10.18;;;7.90;97.20;;;;;;5071485;28;20129;-90
2022/04/12 02:52:10;;;;;;;13.50;9.98;;;7.90;97.40;;;;;;5071276;28;20044;-89
2022/04/12 02:54:35;;;;;;;16.10;10.50;;;7.80;97.50;;;;;;5071611;28;20044;-89
2022/04/12 02:57:01;;;;;;;17.40;10.23;;;7.80;97.50;;;;;;5071924;28;20474;-90
2022/04/12 02:59:27;;;;;;;16.38;10.18;;;7.80;97.60;;;;;;5071032;28;20529;-89
2022/04/12 03:01:52;;;;;;;15.50;10.05;;;7.80;97.70;;;;;;5055146;28;20094;-91
2022/04/12 03:04:18;;;;;;;14.93;10.27;;;7.80;97.80;;;;;;5071455;28;20101;-90
2022/04/12 03:06:44;;;;;;;16.55;10.10;;;7.80;97.80;;;;;;5054947;28;20044;-90
2022/04/12 03:09:10;;;;;;;14.85;10.07;;;7.70;97.90;;;;;;5071790;28;20459;-89
2022/04/12 03:11:35;;;;;;;14.73;10.48;;;7.70;97.90;;;;;;5070886;28;20044;-90
2022/04/12 03:14:02;;;;;;;13.77;8.77;;;7.70;97.90;;;;;;5071404;28;20068;-89
2022/04/12 03:16:27;;;;;;;16.13;10.38;;;7.70;98.00;;;;;;5070493;28;20041;-90
2022/04/12 03:18:53;;;;;;;15.15;10.02;;;7.70;98.10;;;;;;5054727;28;20426;-90
2022/04/12 03:21:18;;;;;;;16.27;10.40;;;7.70;98.20;;;;;;5070946;28;20079;-90
2022/04/12 03:23:44;;;;;;;16.05;10.18;;;7.70;98.10;;;;;;5071515;28;20075;-90
2022/04/12 03:26:09;;;;;;;16.05;9.65;;;7.70;98.30;;;;;;5071122;28;20493;-90
2022/04/12 03:28:35;;;;;;;16.15;9.55;;;7.70;98.50;;;;;;5070963;28;20571;-90
2022/04/12 03:31:01;;;;;;;15.23;9.88;;;7.70;98.50;;;;;;5054032;28;20051;-90
2022/04/12 03:33:26;;;;;;;15.52;9.65;;;7.70;98.60;;;;;;5070751;28;20044;-90
2022/04/12 03:35:52;;;;;;;13.60;9.77;;;7.70;98.50;;;;;;5054264;28;20058;-90
2022/04/12 03:38:17;;;;;;;15.50;9.27;;;7.70;98.70;;;;;;5054177;28;20033;-90
2022/04/12 03:40:46;;;;;;;14.38;8.68;;;7.70;98.70;;;;;;5070023;28;20032;-90
2022/04/12 03:43:11;;;;;;;14.63;8.85;;;7.70;98.70;;;;;;5070943;28;20498;-90
2022/04/12 03:45:37;;;;;;;14.48;8.63;;;7.70;98.80;;;;;;5070653;28;20102;-90
2022/04/12 03:48:03;;;;;;;13.65;8.57;;;7.70;98.80;;;;;;5070523;28;20054;-90
2022/04/12 03:50:28;;;;;;;15.40;8.80;;;7.70;98.90;;;;;;5070678;28;20123;-90
2022/04/12 03:52:54;;;;;;;14.75;9.23;;;7.70;99.10;;;;;;5070595;28;20162;-90
2022/04/12 03:55:34;;;;;;;13.93;9.20;;;7.70;99.10;;;;;;5053911;28;20086;-90
2022/04/12 03:58:08;;;;;;;15.02;9.40;;;7.70;99.10;;;;;;5054049;28;20096;-90
2022/04/12 04:00:35;;;;;;;12.82;8.30;;;7.70;99.50;;;;;;5070048;28;20037;-90
2022/04/12 04:03:00;;;;;;;14.02;8.45;;;7.70;99.10;;;;;;5070522;28;20029;-90
2022/04/12 04:05:26;;;;;;;15.93;9.27;;;7.70;99.10;;;;;;5070505;28;20119;-90
2022/04/12 04:07:52;;;;;;;13.25;8.18;;;7.70;99.20;;;;;;5070515;28;20447;-90
2022/04/12 04:10:19;;;;;;;15.30;9.85;;;7.70;99.20;;;;;;5070422;28;20119;-90
2022/04/12 04:12:45;;;;;;;13.40;9.07;;;7.70;99.30;;;;;;5070589;28;20119;-90
2022/04/12 04:15:14;;;;;;;13.10;8.98;;;7.70;99.30;;;;;;5069277;28;20041;-90
2022/04/12 04:17:45;;;;;;;14.93;9.50;;;7.70;99.30;;;;;;5054205;28;20125;-90
2022/04/12 04:20:12;;;;;;;14.77;9.15;;;7.70;99.40;;;;;;5070081;28;20063;-90
2022/04/12 04:22:40;;;;;;;13.88;9.43;;;7.60;99.40;;;;;;5070021;28;20032;-90
2022/04/12 04:25:08;;;;;;;13.48;8.80;;;7.60;99.40;;;;;;5053252;28;20056;-90
2022/04/12 04:27:34;;;;;;;14.57;9.10;;;7.60;99.60;;;;;;5069878;28;20051;-89
2022/04/12 04:29:59;;;;;;;13.50;8.18;;;7.60;99.60;;;;;;5069829;28;20044;-89
2022/04/12 04:32:25;;;;;;;14.38;9.13;;;7.60;99.70;;;;;;5069412;28;20039;-90
2022/04/12 04:34:51;;;;;;;14.48;9.27;;;7.60;99.70;;;;;;5070168;28;20036;-90
2022/04/12 04:37:16;;;;;;;14.57;9.98;;;7.50;99.70;;;;;;5070159;28;20170;-90
2022/04/12 04:39:42;;;;;;;16.02;9.15;;;7.60;99.80;;;;;;5069939;28;20379;-90
2022/04/12 04:42:07;;;;;;;13.60;8.68;;;7.50;99.80;;;;;;5069628;28;20033;-90
2022/04/12 04:44:33;;;;;;;14.25;8.57;;;7.50;99.90;;;;;;5053393;28;20090;-90
2022/04/12 04:46:59;;;;;;;16.08;9.05;;;7.50;99.90;;;;;;5069952;28;20086;-90
2022/04/12 04:49:25;;;;;;;15.85;9.20;;;7.50;99.90;;;;;;5053467;28;20058;-90
2022/04/12 04:51:50;;;;;;;14.07;9.02;;;7.40;99.90;;;;;;5070509;28;20044;-90
2022/04/12 04:54:16;;;;;;;13.48;8.52;;;7.40;99.90;;;;;;5057619;28;20040;-91
2022/04/12 04:56:42;;;;;;;15.55;9.20;;;7.40;99.90;;;;;;5057201;28;20048;-90
2022/04/12 04:59:10;;;;;;;13.10;9.30;;;7.40;99.90;;;;;;5074468;28;20036;-90
2022/04/12 05:01:35;;;;;;;14.15;8.75;;;7.40;99.90;;;;;;5073888;28;20101;-90
2022/04/12 05:04:01;;;;;;;15.52;9.75;;;7.40;99.90;;;;;;5074037;28;20553;-90
2022/04/12 05:06:26;;;;;;;16.05;9.73;;;7.40;99.90;;;;;;5057397;28;20040;-91
2022/04/12 05:08:52;;;;;;;16.33;9.85;;;7.30;99.90;;;;;;5074603;28;20490;-91
2022/04/12 05:11:18;;;;;;;16.58;9.25;;;7.40;99.90;;;;;;5073092;28;20501;-89
2022/04/12 05:13:43;;;;;;;13.25;8.65;;;7.40;99.90;;;;;;5073646;28;20036;-89
2022/04/12 05:16:09;;;;;;;13.65;8.77;;;7.30;99.90;;;;;;5072855;28;20043;-90
2022/04/12 05:18:34;;;;;;;16.20;9.15;;;7.30;99.90;;;;;;5073706;28;20467;-89
2022/04/12 05:21:00;;;;;;;14.57;9.20;;;7.40;99.90;;;;;;5073381;28;20476;-90
2022/04/12 05:23:26;;;;;;;14.07;8.65;;;7.40;99.90;;;;;;5073687;28;20082;-90
2022/04/12 05:25:53;;;;;;;13.35;8.60;;;7.40;99.90;;;;;;5056937;28;20497;-89
2022/04/12 05:28:20;;;;;;;16.17;9.00;;;7.40;99.90;;;;;;5073514;28;20056;-89
2022/04/12 05:30:45;;;;;;;12.93;7.97;;;7.40;99.90;;;;;;5072806;28;20051;-89
2022/04/12 05:33:12;;;;;;;17.17;9.43;;;7.40;99.90;;;;;;5057047;28;20036;-89
2022/04/12 05:35:38;;;;;;;14.85;9.73;;;7.50;99.90;;;;;;5073002;28;20516;-89
2022/04/12 05:38:05;;;;;;;13.32;8.95;;;7.50;99.90;;;;;;5073083;28;20119;-89
2022/04/12 05:40:32;;;;;;;14.80;9.85;;;7.50;99.90;;;;;;5072804;28;20589;-90
2022/04/12 05:42:58;;;;;;;14.93;9.40;;;7.50;99.90;;;;;;5073410;28;20485;-90
2022/04/12 05:45:23;;;;;;;14.88;9.55;;;7.60;99.90;;;;;;5073344;28;20033;-89
2022/04/12 05:47:51;;;;;;;16.77;10.52;;;7.60;99.90;;;;;;5073073;28;20040;-89
2022/04/12 05:50:22;;;;;;;18.60;10.02;;;7.60;99.90;;;;;;5073252;28;20397;-89
2022/04/12 05:52:49;;;;;;;13.73;9.48;;;7.70;99.90;;;;;;5072537;28;20037;-89
2022/04/12 05:55:19;;;;;;;15.98;9.52;;;7.70;99.90;;;;;;5072768;28;20047;-89
2022/04/12 05:57:59;;;;;;;14.80;9.68;;;7.80;99.90;;;;;;5056313;28;20032;-89
2022/04/12 06:00:26;;;;;;;14.25;9.07;;;7.90;99.90;;;;;;5072475;28;20045;-89
2022/04/12 06:02:53;;;;;;;15.20;10.18;;;8.00;99.90;;;;;;5072941;28;20041;-89
2022/04/12 06:05:20;;;;;;;15.40;10.27;;;8.00;99.90;;;;;;5055368;28;20075;-89
2022/04/12 06:07:46;;;;;;;14.60;9.82;;;8.10;99.90;;;;;;5063659;28;20036;-89
2022/04/12 06:10:13;;;;;;;15.13;10.10;;;8.10;99.90;;;;;;5041071;28;20043;-89
2022/04/12 06:12:39;;;;;;;15.25;9.57;;;8.20;99.90;;;;;;5041393;28;20413;-90
2022/04/12 06:15:06;;;;;;;16.38;9.00;;;8.20;99.90;;;;;;5052885;28;20510;-90
2022/04/12 06:17:32;;;;;;;15.77;10.23;;;8.30;99.90;;;;;;5052535;28;20087;-89
2022/04/12 06:20:05;;;;;;;14.60;9.95;;;8.30;99.90;;;;;;5052208;28;20036;-89
2022/04/12 06:22:32;;;;;;;15.07;9.82;;;8.40;99.90;;;;;;5052643;28;20087;-90
2022/04/12 06:24:57;;;;;;;16.48;9.48;;;8.40;99.90;;;;;;5035698;28;20047;-90
2022/04/12 06:27:34;;;;;;;15.93;9.43;;;8.40;99.90;;;;;;5052435;28;20111;-89
2022/04/12 06:30:06;;;;;;;16.00;9.73;;;8.50;99.90;;;;;;5052278;28;20043;-89
2022/04/12 06:32:33;;;;;;;16.33;10.30;;;8.50;99.90;;;;;;5052213;28;20056;-89
2022/04/12 06:34:58;;;;;;;15.48;10.02;;;8.60;99.90;;;;;;5035387;28;20095;-89
2022/04/12 06:37:25;;;;;;;14.95;9.93;;;8.70;99.90;;;;;;5052208;28;20049;-90
2022/04/12 06:39:51;;;;;;;15.32;9.45;;;8.70;99.90;;;;;;5053230;28;20037;-89
2022/04/12 06:42:17;;;;;;;17.98;9.90;;;8.80;99.90;;;;;;5051482;28;20041;-90
2022/04/12 06:44:42;;;;;;;15.80;10.20;;;8.80;99.90;;;;;;5037940;28;20098;-90
2022/04/12 06:47:08;;;;;;;13.57;9.48;;;8.90;99.90;;;;;;5062468;28;20039;-90
2022/04/12 06:49:34;;;;;;;17.25;10.25;;;9.00;99.90;;;;;;5037751;28;20101;-90
2022/04/12 06:51:59;;;;;;;15.23;10.40;;;9.00;99.90;;;;;;5064535;28;20127;-89
2022/04/12 06:54:26;;;;;;;17.73;10.90;;;9.10;99.80;;;;;;5073630;28;20041;-90
2022/04/12 06:56:54;;;;;;;17.50;10.98;;;9.20;99.80;;;;;;5072316;28;20045;-90
2022/04/12 06:59:33;;;;;;;17.92;11.35;;;9.20;99.60;;;;;;5073360;28;20043;-90
2022/04/12 07:01:59;;;;;;;16.88;11.13;;;9.30;99.40;;;;;;5073268;28;20486;-90
2022/04/12 07:04:25;;;;;;;15.45;10.43;;;9.30;99.30;;;;;;5079283;28;20051;-90
2022/04/12 07:07:21;;;;;;;18.58;11.35;;;9.30;99.30;;;;;;5085690;28;20031;-89
2022/04/12 07:09:46;;;;;;;17.77;10.98;;;9.30;99.00;;;;;;5015964;28;20587;-89
2022/04/12 07:12:12;;;;;;;15.25;9.88;;;9.40;99.10;;;;;;5014282;28;20120;-90
2022/04/12 07:14:37;;;;;;;16.23;10.50;;;9.40;99.00;;;;;;5017151;28;20136;-89
2022/04/12 07:17:03;;;;;;;16.75;11.00;;;9.50;98.90;;;;;;5016555;28;20047;-89
2022/04/12 07:19:29;;;;;;;14.68;10.02;;;9.60;98.80;;;;;;5033369;28;20061;-89
2022/04/12 07:21:54;;;;;;;16.30;10.13;;;9.70;98.70;;;;;;5032672;28;20044;-90
2022/04/12 07:24:20;;;;;;;15.07;9.80;;;9.70;98.80;;;;;;5033382;28;20037;-90
2022/04/12 07:26:46;;;;;;;16.80;9.27;;;9.80;98.60;;;;;;5033131;28;20056;-89
2022/04/12 07:29:12;;;;;;;14.85;9.68;;;9.90;98.70;;;;;;5033377;28;20044;-89
2022/04/12 07:31:38;;;;;;;14.27;8.88;;;10.00;98.70;;;;;;5033136;28;20049;-90
2022/04/12 07:34:04;;;;;;;15.70;10.02;;;10.00;98.50;;;;;;5033021;28;20140;-90
2022/04/12 07:36:30;;;;;;;14.93;8.52;;;10.10;98.30;;;;;;5016462;28;20123;-90
2022/04/12 07:38:55;;;;;;;15.02;9.32;;;10.10;98.40;;;;;;5032710;28;20056;-90
2022/04/12 07:41:21;;;;;;;15.27;9.30;;;10.20;98.30;;;;;;5032957;28;20040;-90
2022/04/12 07:43:47;;;;;;;13.45;8.95;;;10.30;98.60;;;;;;5016377;28;20123;-89
2022/04/12 07:46:14;;;;;;;14.38;9.05;;;10.40;98.30;;;;;;5024314;28;20132;-90
2022/04/12 07:48:43;;;;;;;15.88;9.50;;;10.50;98.10;;;;;;5050720;28;20045;-90
2022/04/12 07:51:09;;;;;;;13.88;9.35;;;10.60;97.80;;;;;;5049893;28;20441;-90
2022/04/12 07:53:36;;;;;;;13.52;9.38;;;10.70;97.90;;;;;;5034100;28;20458;-90
2022/04/12 07:56:02;;;;;;;15.90;8.82;;;10.80;97.60;;;;;;5050378;28;20033;-90
2022/04/12 07:58:27;;;;;;;14.63;9.65;;;10.90;97.00;;;;;;5046778;28;20098;-88
2022/04/12 08:00:53;;;;;;;13.52;8.63;;;11.00;96.60;;;;;;5040281;28;20387;-90
2022/04/12 08:03:21;;;;;;;14.02;8.60;;;11.10;96.10;;;;;;5050170;28;20041;-91
2022/04/12 08:05:47;;;;;;;14.10;9.05;;;11.20;95.70;;;;;;5037515;28;20041;-90
2022/04/12 08:08:13;;;;;;;12.90;8.73;;;11.40;95.50;;;;;;5052534;28;20387;-90
2022/04/12 08:10:39;;;;;;;14.50;9.15;;;11.50;95.20;;;;;;5050447;28;20144;-90
2022/04/12 08:13:04;;;;;;;13.52;8.85;;;11.60;95.10;;;;;;5049705;28;20563;-90
2022/04/12 08:15:30;;;;;;;13.65;8.75;;;11.70;95.30;;;;;;5059312;28;20055;-90
2022/04/12 08:17:56;;;;;;;14.02;8.73;;;11.80;94.80;;;;;;5057692;28;20082;-90
2022/04/12 08:20:22;;;;;;;13.30;8.98;;;12.00;94.60;;;;;;5066652;28;20066;-90
2022/04/12 08:22:48;;;;;;;16.17;10.25;;;12.10;94.20;;;;;;5070092;28;20545;-91
2022/04/12 08:25:14;;;;;;;11.95;8.15;;;12.30;93.80;;;;;;5053328;28;20153;-91
2022/04/12 08:27:40;;;;;;;12.95;8.90;;;12.40;93.60;;;;;;5052416;28;20116;-91
2022/04/12 08:30:09;;;;;;;13.90;8.65;;;12.50;93.60;;;;;;5070271;28;20498;-91
2022/04/12 08:32:35;;;;;;;14.05;9.93;;;12.60;92.60;;;;;;5056444;28;20040;-90
2022/04/12 08:35:00;;;;;;;13.27;8.43;;;12.70;92.60;;;;;;5033333;28;20036;-91
2022/04/12 08:37:27;;;;;;;13.68;8.00;;;12.80;91.90;;;;;;5049941;28;20045;-91
2022/04/12 08:39:53;;;;;;;12.60;8.15;;;12.90;92.10;;;;;;5057960;28;20043;-91
2022/04/12 08:42:18;;;;;;;11.95;8.50;;;13.00;92.40;;;;;;5070093;28;20387;-90
2022/04/12 08:44:46;;;;;;;13.20;8.90;;;13.20;92.60;;;;;;5053297;28;20471;-89
2022/04/12 08:47:15;;;;;;;13.70;8.40;;;13.30;91.90;;;;;;5053028;28;20439;-90
2022/04/12 08:49:42;;;;;;;14.52;8.70;;;13.40;91.70;;;;;;5052957;28;20131;-90
2022/04/12 08:52:11;;;;;;;13.15;8.88;;;13.50;91.50;;;;;;5069674;28;20044;-91
2022/04/12 08:54:38;;;;;;;12.25;8.18;;;13.70;91.60;;;;;;5069213;28;20087;-91
2022/04/12 08:57:04;;;;;;;12.85;8.63;;;13.80;90.40;;;;;;5069460;28;20040;-91
2022/04/12 08:59:30;;;;;;;14.15;9.15;;;13.90;91.00;;;;;;5069413;28;20094;-91
2022/04/12 09:01:57;;;;;;;12.77;9.00;;;14.00;90.70;;;;;;5068313;28;20406;-91
2022/04/12 09:04:22;;;;;;;13.45;9.13;;;14.20;89.30;;;;;;5053084;28;20482;-91
2022/04/12 09:06:53;;;;;;;13.23;8.90;;;14.30;87.10;;;;;;5069797;28;20041;-91
2022/04/12 09:09:25;;;;;;;12.57;8.88;;;14.30;85.70;;;;;;5069969;28;20052;-91
2022/04/12 09:12:02;;;;;;;12.50;8.53;;;14.50;85.00;;;;;;5052944;28;20159;-91
2022/04/12 09:14:46;;;;;;;13.38;8.70;;;14.60;84.70;;;;;;5068769;28;20080;-91
2022/04/12 09:17:19;;;;;;;11.65;8.75;;;14.70;82.80;;;;;;5069685;28;20048;-91
2022/04/12 09:19:51;;;;;;;12.30;9.02;;;14.80;82.80;;;;;;5069262;28;20048;-91
2022/04/12 09:22:23;;;;;;;11.15;8.10;;;14.90;83.90;;;;;;5069590;28;20082;-91
2022/04/12 09:24:52;;;;;;;12.80;8.17;;;15.10;84.50;;;;;;5053058;28;20536;-91
2022/04/12 09:27:20;;;;;;;13.52;8.57;;;15.20;83.30;;;;;;5052688;28;20279;-91
2022/04/12 09:29:48;;;;;;;12.85;8.77;;;15.30;81.80;;;;;;5069137;28;20559;-91
2022/04/12 09:32:15;;;;;;;13.32;8.23;;;15.40;79.70;;;;;;5052694;28;20040;-91
2022/04/12 09:34:44;;;;;;;13.50;8.48;;;15.50;77.80;;;;;;5053256;28;20047;-91
2022/04/12 09:37:17;;;;;;;13.15;8.18;;;15.60;76.20;;;;;;5052152;28;20559;-90
2022/04/12 09:39:54;;;;;;;11.93;8.43;;;15.60;79.00;;;;;;5071298;28;20102;-90
2022/04/12 09:42:38;;;;;;;12.82;8.35;;;15.70;77.00;;;;;;5072799;28;20501;-90
2022/04/12 09:45:05;;;;;;;13.50;8.77;;;15.90;77.10;;;;;;5056265;28;20577;-90
2022/04/12 09:47:32;;;;;;;11.75;8.18;;;16.00;76.90;;;;;;5072857;28;20086;-89
2022/04/12 09:49:58;;;;;;;11.90;8.27;;;16.10;76.50;;;;;;5063949;28;20119;-90
2022/04/12 09:52:24;;;;;;;13.35;8.20;;;16.20;73.70;;;;;;5042050;28;20047;-90
2022/04/12 09:54:51;;;;;;;12.50;8.55;;;16.30;74.00;;;;;;5042308;28;20041;-90
2022/04/12 09:57:17;;;;;;;12.15;8.15;;;16.40;74.20;;;;;;5035384;28;20133;-90
2022/04/12 09:59:44;;;;;;;11.13;7.47;;;16.50;72.50;;;;;;5062720;28;20028;-90
2022/04/12 10:02:11;;;;;;;11.60;7.95;;;16.70;72.40;;;;;;5055555;28;20043;-90
2022/04/12 10:04:38;;;;;;;13.25;7.97;;;16.80;72.90;;;;;;5072815;28;20119;-90
2022/04/12 10:07:05;;;;;;;12.02;8.05;;;16.90;72.60;;;;;;5055541;28;20048;-90
2022/04/12 10:09:37;;;;;;;11.80;7.70;;;17.10;71.60;;;;;;5069180;28;20037;-91
2022/04/12 10:12:05;;;;;;;12.90;8.27;;;17.20;71.30;;;;;;5072829;28;20037;-90
2022/04/12 10:14:31;;;;;;;11.95;7.18;;;17.30;70.50;;;;;;5055696;28;20060;-90
2022/04/12 10:16:57;;;;;;;12.57;7.90;;;17.40;69.90;;;;;;5055527;28;20044;-90
2022/04/12 10:19:23;;;;;;;12.10;7.50;;;17.50;69.70;;;;;;5072742;28;20372;-90
2022/04/12 10:21:50;;;;;;;11.90;8.18;;;17.60;68.00;;;;;;5072263;28;20401;-90
2022/04/12 10:24:17;;;;;;;11.40;7.53;;;17.70;67.40;;;;;;5055489;28;20083;-90
2022/04/12 10:26:46;;;;;;;11.68;7.88;;;17.80;65.60;;;;;;5072255;28;20075;-90
2022/04/12 10:29:13;;;;;;;12.50;7.45;;;17.80;66.10;;;;;;5065632;28;20055;-90
2022/04/12 10:31:52;;;;;;;12.18;8.27;;;17.90;65.60;;;;;;5071628;28;20119;-90
2022/04/12 10:34:18;;;;;;;12.23;7.88;;;18.00;66.10;;;;;;5072350;28;20565;-90
2022/04/12 10:37:04;;;;;;;12.63;8.10;;;18.10;66.40;;;;;;5073211;28;20069;-90
2022/04/12 10:39:33;;;;;;;11.18;7.90;;;18.30;66.10;;;;;;5066293;28;20051;-90
2022/04/12 10:42:05;;;;;;;11.98;7.70;;;18.40;66.10;;;;;;5044445;28;20056;-90
2022/04/12 10:44:58;;;;;;;13.35;8.90;;;18.60;65.80;;;;;;5046381;28;20040;-90
2022/04/12 10:47:38;;;;;;;13.57;8.38;;;18.70;65.30;;;;;;5054086;28;20055;-90
2022/04/12 10:50:12;;;;;;;14.23;8.23;;;18.80;64.10;;;;;;5051747;28;20072;-90
2022/04/12 10:52:45;;;;;;;10.93;7.85;;;18.80;63.50;;;;;;5035539;28;20041;-89
2022/04/12 10:55:16;;;;;;;12.80;7.97;;;18.90;63.10;;;;;;5051840;28;20094;-90
2022/04/12 10:57:43;;;;;;;12.07;8.20;;;19.00;63.90;;;;;;5051956;28;20570;-91
2022/04/12 11:00:20;;;;;;;11.35;8.02;;;19.20;64.50;;;;;;5033569;28;20123;-91
2022/04/12 11:02:59;;;;;;;10.95;8.18;;;19.30;62.30;;;;;;5034750;28;20041;-91
2022/04/12 11:05:37;;;;;;;12.52;7.60;;;19.40;61.10;;;;;;5034665;28;20060;-91
2022/04/12 11:08:14;;;;;;;12.32;8.15;;;19.50;62.40;;;;;;5035033;28;20036;-91
2022/04/12 11:10:52;;;;;;;13.70;8.63;;;19.70;62.00;;;;;;5051360;28;20040;-90
2022/04/12 11:13:22;;;;;;;12.90;8.32;;;19.90;60.80;;;;;;5051571;28;20498;-90
2022/04/12 11:15:56;;;;;;;12.60;8.32;;;20.00;61.40;;;;;;5052014;28;20406;-90
2022/04/12 11:18:21;;;;;;;13.07;8.82;;;20.10;59.30;;;;;;5051349;28;20049;-91
2022/04/12 11:21:02;;;;;;;13.45;8.52;;;20.20;59.90;;;;;;5051232;28;20079;-91
2022/04/12 11:24:04;;;;;;;11.73;8.35;;;20.30;59.80;;;;;;5061322;28;20051;-91
2022/04/12 11:26:40;;;;;;;14.57;8.90;;;20.50;59.50;;;;;;5071342;28;20037;-90
2022/04/12 11:29:10;;;;;;;12.15;8.38;;;20.60;58.20;;;;;;5071006;28;20080;-91
2022/04/12 11:31:45;;;;;;;12.82;8.20;;;20.70;59.20;;;;;;5054535;28;20040;-90
2022/04/12 11:34:12;;;;;;;13.18;8.43;;;20.80;59.00;;;;;;5054250;28;20044;-91
2022/04/12 11:37:01;;;;;;;12.70;8.52;;;20.90;58.30;;;;;;5052505;28;20036;-91
2022/04/12 11:39:32;;;;;;;14.38;8.55;;;20.90;57.60;;;;;;5054590;28;20040;-91
2022/04/12 11:42:03;;;;;;;16.45;9.02;;;21.00;58.60;;;;;;5070967;28;20044;-91
2022/04/12 11:44:30;;;;;;;14.07;9.15;;;21.10;57.70;;;;;;5070519;28;20040;-91
2022/04/12 11:46:58;;;;;;;13.43;9.00;;;21.20;57.20;;;;;;5070877;28;20044;-90
2022/04/12 11:49:43;;;;;;;14.13;9.40;;;21.30;57.50;;;;;;5070974;28;20123;-91
2022/04/12 11:52:11;;;;;;;14.07;9.52;;;21.40;56.60;;;;;;5054004;28;20036;-91
2022/04/12 11:54:41;;;;;;;13.02;9.18;;;21.40;56.90;;;;;;5070420;28;20040;-90
2022/04/12 11:57:14;;;;;;;12.35;9.13;;;21.60;57.60;;;;;;5054146;28;20041;-91
2022/04/12 11:59:52;;;;;;;;;;;21.70;57.50;;;;;;5071962;28;20115;-91
2022/04/12 12:02:20;;;;;;;15.55;9.30;;;21.80;57.00;;;;;;5053725;28;19921;-91
2022/04/12 12:04:49;;;;;;;14.60;8.95;;;21.90;56.90;;;;;;5054193;28;20036;-91
2022/04/12 12:07:15;;;;;;;13.35;8.70;;;22.10;55.80;;;;;;5054026;28;20055;-90
2022/04/12 12:09:53;;;;;;;14.50;9.48;;;22.20;54.50;;;;;;5053657;28;20044;-91
2022/04/12 12:12:19;;;;;;;14.25;8.38;;;22.40;54.20;;;;;;5053619;28;20068;-91
2022/04/12 12:14:44;;;;;;;12.90;7.97;;;22.40;53.90;;;;;;5053492;28;20044;-91
2022/04/12 12:17:18;;;;;;;12.63;7.88;;;22.50;52.90;;;;;;5070187;28;20041;-91
2022/04/12 12:19:44;;;;;;;12.95;7.90;;;22.70;51.80;;;;;;5053931;28;20119;-91
2022/04/12 12:22:12;;;;;;;12.77;7.80;;;22.90;51.60;;;;;;5053624;28;20038;-91
2022/04/12 12:24:57;;;;;;;13.18;8.18;;;23.10;52.00;;;;;;5070571;28;20512;-91
2022/04/12 12:27:29;;;;;;;14.30;8.93;;;23.30;50.60;;;;;;5053607;28;20048;-91
2022/04/12 12:30:21;;;;;;;;;;;23.40;50.80;;;;;;5070160;28;20043;-91
2022/04/12 12:32:51;;;;;;;12.10;7.20;;;23.40;50.20;;;;;;5044024;28;19917;-91
2022/04/12 12:35:17;;;;;;;13.55;8.02;;;23.50;51.40;;;;;;5042974;28;20075;-91
2022/04/12 12:37:45;;;;;;;14.27;8.10;;;23.60;49.30;;;;;;5050190;28;20045;-91
2022/04/12 12:40:22;;;;;;;11.95;7.35;;;23.70;49.20;;;;;;5033100;28;20037;-90
2022/04/12 12:42:50;;;;;;;13.25;8.30;;;23.90;49.70;;;;;;5050430;28;20498;-90
2022/04/12 12:45:20;;;;;;;12.27;7.55;;;24.00;47.90;;;;;;5033608;28;20049;-91
2022/04/12 12:47:50;;;;;;;11.68;7.68;;;24.20;48.20;;;;;;5050106;28;20569;-91